createdAt,value
2023-03-14T00:04:49.904Z,12.25
2023-03-14T00:09:52.307Z,12.32
2023-03-14T00:14:53.797Z,12.34
2023-03-14T00:19:55.280Z,12.22
2023-03-14T00:24:56.830Z,12.21
2023-03-14T00:29:58.567Z,11.74
2023-03-14T00:35:00.247Z,11.67
2023-03-14T00:40:02.217Z,11.69
2023-03-14T00:45:04.158Z,11.81
2023-03-14T00:50:06.238Z,11.84
2023-03-14T00:55:08.116Z,11.91
2023-03-14T01:00:10.296Z,11.80
2023-03-14T01:05:12.136Z,11.84
2023-03-14T01:10:13.810Z,11.86
2023-03-14T01:15:15.419Z,11.95
2023-03-14T01:20:18.220Z,11.85
2023-03-14T01:25:19.699Z,11.88
2023-03-14T01:30:22.376Z,11.81
2023-03-14T01:35:23.978Z,11.89
2023-03-14T01:40:26.556Z,11.79
2023-03-14T01:45:59.080Z,11.64
2023-03-14T01:51:03.016Z,11.70
2023-03-14T01:56:06.141Z,11.76
2023-03-14T02:01:09.703Z,11.66
2023-03-14T02:06:12.251Z,11.75
2023-03-14T02:11:18.145Z,11.53
2023-03-14T02:16:46.202Z,11.50
2023-03-14T02:22:19.176Z,11.48
2023-03-14T02:27:29.287Z,11.49
2023-03-14T02:32:34.240Z,11.34
2023-03-14T02:37:57.637Z,11.33
2023-03-14T02:43:02.510Z,11.22
2023-03-14T02:48:11.725Z,11.48
2023-03-14T02:53:18.633Z,11.50
2023-03-14T02:58:20.642Z,11.57
2023-03-14T03:03:27.357Z,11.44
2023-03-14T03:08:30.225Z,11.35
2023-03-14T03:13:34.082Z,11.45
2023-03-14T03:18:37.652Z,11.48
2023-03-14T03:23:39.957Z,11.57
2023-03-14T03:28:41.526Z,11.71
2023-03-14T03:33:43.212Z,11.62
2023-03-14T03:38:44.753Z,11.60
2023-03-14T03:43:46.320Z,11.63
2023-03-14T03:48:56.304Z,11.64
2023-03-14T03:53:58.100Z,11.70
2023-03-14T03:59:04.731Z,11.66
2023-03-14T04:04:06.470Z,11.24
2023-03-14T04:09:09.721Z,11.15
2023-03-14T04:14:19.870Z,11.26
2023-03-14T04:19:22.054Z,11.33
2023-03-14T04:24:25.839Z,11.24
2023-03-14T04:29:28.139Z,11.32
2023-03-14T04:34:30.079Z,11.41
2023-03-14T04:39:32.704Z,11.35
2023-03-14T04:44:44.830Z,11.32
2023-03-14T04:49:48.078Z,11.48
2023-03-14T04:54:51.124Z,11.30
2023-03-14T04:59:54.042Z,11.28
2023-03-14T05:05:14.121Z,11.34
2023-03-14T05:10:35.978Z,11.38
2023-03-14T05:16:06.968Z,11.54
2023-03-14T05:21:38.135Z,11.64
2023-03-14T05:26:42.422Z,11.65
2023-03-14T05:32:02.721Z,11.62
2023-03-14T05:37:21.164Z,11.16
2023-03-14T05:42:34.134Z,10.99
2023-03-14T05:47:54.178Z,10.93
2023-03-14T05:53:10.632Z,11.01
2023-03-14T05:58:44.590Z,11.16
2023-03-14T06:04:18.569Z,11.25
2023-03-14T06:09:25.247Z,11.31
2023-03-14T06:14:29.784Z,11.13
2023-03-14T06:19:32.070Z,11.27
2023-03-14T06:24:33.739Z,11.32
2023-03-14T06:29:35.706Z,11.38
2023-03-14T06:34:38.504Z,11.38
2023-03-14T06:39:40.905Z,11.52
2023-03-14T06:44:49.933Z,11.62
2023-03-14T06:49:51.698Z,11.62
2023-03-14T06:54:53.520Z,11.65
2023-03-14T06:59:57.650Z,11.64
2023-03-14T07:04:59.742Z,11.81
2023-03-14T07:10:01.369Z,11.86
2023-03-14T07:20:31.635Z,11.71
2023-03-14T07:25:33.144Z,11.77
2023-03-14T07:30:34.708Z,11.87
2023-03-14T07:35:38.891Z,11.63
2023-03-14T07:40:40.966Z,11.57
2023-03-14T07:45:50.866Z,11.73
2023-03-14T07:50:53.308Z,11.80
2023-03-14T07:55:55.418Z,11.62
2023-03-14T08:00:59.600Z,11.59
2023-03-14T08:06:01.126Z,11.93
2023-03-14T08:11:07.139Z,12.15
2023-03-14T08:16:09.360Z,12.31
2023-03-14T08:21:11.023Z,12.42
2023-03-14T08:26:12.478Z,12.79
2023-03-14T08:31:14.219Z,12.87
2023-03-14T08:36:16.013Z,13.12
2023-03-14T08:41:17.576Z,12.84
2023-03-14T08:46:19.119Z,13.13
2023-03-14T08:51:20.613Z,13.47
2023-03-14T08:56:24.867Z,13.77
2023-03-14T09:01:27.474Z,13.74
2023-03-14T09:06:29.164Z,13.66
2023-03-14T09:11:31.482Z,13.66
2023-03-14T09:16:34.632Z,13.28
2023-03-14T09:21:36.184Z,12.55
2023-03-14T09:26:37.771Z,12.72
2023-03-14T09:31:39.473Z,12.70
2023-03-14T09:36:40.922Z,12.81
2023-03-14T09:41:47.055Z,12.82
2023-03-14T09:46:52.542Z,12.84
2023-03-14T09:51:57.400Z,13.04
2023-03-14T09:56:59.108Z,13.25
2023-03-14T10:02:34.428Z,13.58
2023-03-14T10:07:35.891Z,13.04
2023-03-14T10:12:38.581Z,12.98
2023-03-14T10:17:44.828Z,12.76
2023-03-14T10:22:47.030Z,12.98
2023-03-14T10:27:48.500Z,13.17
2023-03-14T10:32:50.021Z,12.92
2023-03-14T10:37:54.545Z,12.77
2023-03-14T10:42:56.601Z,12.95
2023-03-14T10:48:06.146Z,12.55
2023-03-14T10:53:09.519Z,12.67
2023-03-14T10:58:30.905Z,12.67
2023-03-14T11:03:37.202Z,12.71
2023-03-14T11:08:44.772Z,12.67
2023-03-14T11:13:53.973Z,12.62
2023-03-14T11:19:34.380Z,12.60
2023-03-14T11:24:54.701Z,12.44
2023-03-14T11:30:04.082Z,12.18
2023-03-14T11:35:17.450Z,11.87
2023-03-14T11:40:22.544Z,11.65
2023-03-14T11:45:31.634Z,11.44
2023-03-14T11:50:34.698Z,11.20
2023-03-14T11:55:38.137Z,10.96
2023-03-14T12:00:40.626Z,10.68
2023-03-14T12:05:55.929Z,10.51
2023-03-14T12:11:06.118Z,10.12
2023-03-14T12:16:25.828Z,9.61
2023-03-14T12:21:49.098Z,9.34
2023-03-14T12:26:57.317Z,9.68
2023-03-14T12:32:01.767Z,9.59
2023-03-14T12:37:38.826Z,9.56
2023-03-14T12:42:52.591Z,10.09
2023-03-14T12:48:23.162Z,9.99
2023-03-14T12:53:39.953Z,10.12
2023-03-14T12:59:10.160Z,10.21
2023-03-14T13:04:12.620Z,10.50
2023-03-14T13:09:29.083Z,10.61
2023-03-14T13:14:32.377Z,11.15
2023-03-14T13:19:34.770Z,11.02
2023-03-14T13:24:36.346Z,10.70
2023-03-14T13:29:37.822Z,10.50
2023-03-14T13:34:39.343Z,10.13
2023-03-14T13:39:41.018Z,9.97
2023-03-14T13:44:42.660Z,10.23
2023-03-14T13:49:44.810Z,10.62
2023-03-14T13:54:46.311Z,10.73
2023-03-14T14:00:06.187Z,10.96
2023-03-14T14:05:11.301Z,10.95
2023-03-14T14:10:14.948Z,10.29
2023-03-14T14:15:29.311Z,9.86
2023-03-14T14:20:36.268Z,10.38
2023-03-14T14:25:38.758Z,10.82
2023-03-14T14:30:40.533Z,10.35
2023-03-14T14:35:42.180Z,10.32
2023-03-14T14:40:48.824Z,10.09
2023-03-14T14:45:53.221Z,9.86
2023-03-14T14:51:04.011Z,10.09
2023-03-14T14:56:29.282Z,10.35
2023-03-14T15:01:39.260Z,10.21
2023-03-14T15:06:44.355Z,10.18
2023-03-14T15:11:45.819Z,10.13
2023-03-14T15:16:47.377Z,11.31
2023-03-14T15:21:48.889Z,11.49
2023-03-14T15:26:50.949Z,10.99
2023-03-14T15:31:52.518Z,10.64
2023-03-14T15:36:54.072Z,10.72
2023-03-14T15:41:55.530Z,10.47
2023-03-14T15:46:57.024Z,10.61
2023-03-14T15:51:59.103Z,10.82
2023-03-14T15:57:00.636Z,10.88
2023-03-14T16:02:02.463Z,10.65
2023-03-14T16:07:03.922Z,10.31
2023-03-14T16:12:05.748Z,10.13
2023-03-14T16:17:08.777Z,10.31
2023-03-14T16:22:10.916Z,10.51
2023-03-14T16:27:12.688Z,10.62
2023-03-14T16:32:14.215Z,10.45
2023-03-14T16:37:15.783Z,10.50
2023-03-14T16:42:17.465Z,10.01
2023-03-14T16:47:18.968Z,9.74
2023-03-14T16:52:20.484Z,9.66
2023-03-14T16:57:21.924Z,9.59
2023-03-14T17:02:23.438Z,9.78
2023-03-14T17:07:24.909Z,9.76
2023-03-14T17:12:26.370Z,9.73
2023-03-14T17:17:27.832Z,9.65
2023-03-14T17:22:31.753Z,9.26
2023-03-14T17:27:34.264Z,9.33
2023-03-14T17:32:35.812Z,9.52
2023-03-14T17:37:37.339Z,9.67
2023-03-14T17:42:38.881Z,9.44
2023-03-14T17:47:40.358Z,9.28
2023-03-14T17:52:41.966Z,9.17
2023-03-14T17:57:43.427Z,8.84
2023-03-14T18:02:45.116Z,8.70
2023-03-14T18:07:46.759Z,8.70
2023-03-14T18:12:48.227Z,8.29
2023-03-14T18:17:49.750Z,8.32
2023-03-14T18:22:51.258Z,8.35
2023-03-14T18:27:52.800Z,8.29
2023-03-14T18:32:54.378Z,8.44
2023-03-14T18:37:55.948Z,8.50
2023-03-14T18:42:57.480Z,8.49
2023-03-14T18:47:59.008Z,8.70
2023-03-14T18:53:00.595Z,8.93
2023-03-14T18:58:02.109Z,9.18
2023-03-14T19:03:04.420Z,9.28
2023-03-14T19:08:05.967Z,8.91
2023-03-14T19:13:07.444Z,8.73
2023-03-14T19:18:09.631Z,8.66
2023-03-14T19:23:11.690Z,8.62
2023-03-14T19:28:13.135Z,8.76
2023-03-14T19:33:16.281Z,8.60
2023-03-14T19:38:17.826Z,8.67
2023-03-14T19:43:19.293Z,8.81
2023-03-14T19:48:20.820Z,8.83
2023-03-14T19:53:22.347Z,8.76
2023-03-14T19:58:24.363Z,8.84
2023-03-14T20:03:25.865Z,8.36
2023-03-14T20:08:27.349Z,7.96
2023-03-14T20:13:28.824Z,7.70
2023-03-14T20:18:30.397Z,7.53
2023-03-14T20:23:31.949Z,7.75
2023-03-14T20:28:33.428Z,7.88
2023-03-14T20:33:35.041Z,7.92
2023-03-14T20:38:36.715Z,7.86
2023-03-14T20:43:39.211Z,7.82
2023-03-14T20:48:40.741Z,7.82
2023-03-14T20:53:42.414Z,7.78
2023-03-14T20:58:43.892Z,7.70
2023-03-14T21:03:45.350Z,7.55
2023-03-14T21:08:46.748Z,7.59
2023-03-14T21:13:48.162Z,7.43
2023-03-14T21:18:49.574Z,7.47
2023-03-14T21:23:50.984Z,7.62
2023-03-14T21:28:52.382Z,7.73
2023-03-14T21:33:53.770Z,7.90
2023-03-14T21:38:55.168Z,7.72
2023-03-14T21:43:56.609Z,7.81
2023-03-14T21:48:58.031Z,7.91
2023-03-14T21:53:59.436Z,7.98
2023-03-14T21:59:00.845Z,7.94
2023-03-14T22:04:02.374Z,8.04
2023-03-14T22:09:03.784Z,7.99
2023-03-14T22:14:05.183Z,8.06
2023-03-14T22:19:06.662Z,8.07
2023-03-14T22:24:08.376Z,8.00
2023-03-14T22:29:09.796Z,7.62
2023-03-14T22:34:12.014Z,7.39
2023-03-14T22:39:13.419Z,7.62
2023-03-14T22:44:14.875Z,7.71
2023-03-14T22:49:16.383Z,7.69
2023-03-14T22:54:17.841Z,7.68
2023-03-14T22:59:19.255Z,7.40
2023-03-14T23:04:20.773Z,7.62
2023-03-14T23:09:22.193Z,7.57
2023-03-14T23:14:23.597Z,7.40
2023-03-14T23:19:25.048Z,7.50
2023-03-14T23:24:26.487Z,7.52
2023-03-14T23:29:27.961Z,7.31
2023-03-14T23:34:29.429Z,7.24
2023-03-14T23:39:30.842Z,7.42
2023-03-14T23:44:32.238Z,7.44
2023-03-14T23:49:33.657Z,7.37
2023-03-14T23:54:35.238Z,7.21
2023-03-14T23:59:38.078Z,7.33
